createdAt,value
2019-03-28T00:00:41.789Z,0.00
2019-03-28T00:01:41.757Z,0.00
2019-03-28T00:02:41.730Z,0.00
2019-03-28T00:03:41.701Z,0.00
2019-03-28T00:04:42.183Z,0.00
2019-03-28T00:05:41.644Z,0.00
2019-03-28T00:06:41.615Z,0.00
2019-03-28T00:07:41.588Z,0.00
2019-03-28T00:08:41.558Z,0.00
2019-03-28T00:09:41.529Z,0.00
2019-03-28T00:10:41.499Z,0.00
2019-03-28T00:11:41.472Z,0.00
2019-03-28T00:12:41.441Z,0.00
2019-03-28T00:13:41.415Z,0.00
2019-03-28T00:14:41.383Z,0.00
2019-03-28T00:15:41.357Z,0.00
2019-03-28T00:16:41.328Z,0.00
2019-03-28T00:17:41.300Z,0.00
2019-03-28T00:18:41.270Z,0.00
2019-03-28T00:19:41.241Z,0.00
2019-03-28T00:20:41.218Z,0.00
2019-03-28T00:21:41.184Z,0.00
2019-03-28T00:22:41.154Z,0.00
2019-03-28T00:23:41.128Z,0.00
2019-03-28T00:24:41.097Z,0.00
2019-03-28T00:25:41.072Z,0.00
2019-03-28T00:26:41.042Z,0.00
2019-03-28T00:27:41.012Z,0.00
2019-03-28T00:28:40.991Z,0.00
2019-03-28T00:29:40.952Z,0.00
2019-03-28T00:30:40.925Z,0.00
2019-03-28T00:31:40.911Z,0.00
2019-03-28T00:32:40.867Z,0.00
2019-03-28T00:33:40.838Z,0.00
2019-03-28T00:34:40.809Z,0.00
2019-03-28T00:35:40.780Z,0.00
2019-03-28T00:36:40.752Z,0.00
2019-03-28T00:37:40.723Z,0.00
2019-03-28T00:38:40.694Z,0.00
2019-03-28T00:39:40.664Z,0.00
2019-03-28T00:40:40.635Z,0.00
2019-03-28T00:41:40.608Z,0.00
2019-03-28T00:42:40.578Z,0.00
2019-03-28T00:43:40.549Z,0.00
2019-03-28T00:44:41.206Z,0.00
2019-03-28T00:45:40.491Z,0.00
2019-03-28T00:46:40.462Z,0.00
2019-03-28T00:47:40.437Z,0.00
2019-03-28T00:48:40.406Z,0.00
2019-03-28T00:49:40.382Z,0.00
2019-03-28T00:50:40.347Z,0.00
2019-03-28T00:51:43.032Z,0.00
2019-03-28T00:52:40.712Z,0.00
2019-03-28T00:53:40.263Z,0.00
2019-03-28T00:54:40.233Z,0.00
2019-03-28T00:55:40.204Z,0.00
2019-03-28T00:56:46.827Z,0.00
2019-03-28T00:57:40.146Z,0.00
2019-03-28T00:58:40.117Z,0.00
2019-03-28T00:59:40.093Z,0.00
2019-03-28T01:00:40.215Z,0.00
2019-03-28T01:01:40.031Z,0.00
2019-03-28T01:02:40.004Z,0.00
2019-03-28T01:03:39.972Z,0.00
2019-03-28T01:04:39.944Z,0.00
2019-03-28T01:05:39.917Z,0.00
2019-03-28T01:06:39.886Z,0.00
2019-03-28T01:07:39.857Z,0.00
2019-03-28T01:08:39.828Z,0.00
2019-03-28T01:09:39.803Z,0.00
2019-03-28T01:10:39.771Z,0.00
2019-03-28T01:11:39.743Z,0.00
2019-03-28T01:12:39.713Z,0.00
2019-03-28T01:13:39.685Z,0.00
2019-03-28T01:14:39.655Z,0.00
2019-03-28T01:15:39.627Z,0.00
2019-03-28T01:16:39.627Z,0.00
2019-03-28T01:17:39.569Z,0.00
2019-03-28T01:18:39.538Z,0.00
2019-03-28T01:19:39.511Z,0.00
2019-03-28T01:20:39.482Z,0.00
2019-03-28T01:21:39.456Z,0.00
2019-03-28T01:22:39.427Z,0.00
2019-03-28T01:23:39.397Z,0.00
2019-03-28T01:24:39.367Z,0.00
2019-03-28T01:25:39.338Z,0.00
2019-03-28T01:26:39.312Z,0.00
2019-03-28T01:27:39.281Z,0.00
2019-03-28T01:28:39.257Z,0.00
2019-03-28T01:29:39.222Z,0.00
2019-03-28T01:30:39.193Z,0.00
2019-03-28T01:31:39.165Z,0.00
2019-03-28T01:32:39.136Z,0.00
2019-03-28T01:33:39.112Z,0.00
2019-03-28T01:34:39.079Z,0.00
2019-03-28T01:35:39.049Z,0.00
2019-03-28T01:36:39.021Z,0.00
2019-03-28T01:37:38.991Z,0.00
2019-03-28T01:38:38.964Z,0.00
2019-03-28T01:39:38.934Z,0.00
2019-03-28T01:40:38.905Z,0.00
2019-03-28T01:41:38.878Z,0.00
2019-03-28T01:42:38.847Z,0.00
2019-03-28T01:43:38.819Z,0.00
2019-03-28T01:44:38.791Z,0.00
2019-03-28T01:45:38.762Z,0.00
2019-03-28T01:46:38.732Z,0.00
2019-03-28T01:47:38.703Z,0.00
2019-03-28T01:48:38.676Z,0.00
2019-03-28T01:49:38.646Z,0.00
2019-03-28T01:50:38.616Z,0.00
2019-03-28T01:51:38.588Z,0.00
2019-03-28T01:52:38.559Z,0.00
2019-03-28T01:53:38.532Z,0.00
2019-03-28T01:54:38.500Z,0.00
2019-03-28T01:55:38.472Z,0.00
2019-03-28T01:56:38.445Z,0.00
2019-03-28T01:57:38.912Z,0.00
2019-03-28T01:58:38.385Z,0.00
2019-03-28T01:59:38.356Z,0.00
2019-03-28T02:00:38.485Z,0.00
2019-03-28T02:01:38.299Z,0.00
2019-03-28T02:02:38.269Z,0.00
2019-03-28T02:03:38.241Z,0.00
2019-03-28T02:04:38.212Z,0.00
2019-03-28T02:05:38.185Z,0.00
2019-03-28T02:06:38.154Z,0.00
2019-03-28T02:07:38.126Z,0.00
2019-03-28T02:08:38.100Z,0.00
2019-03-28T02:09:38.073Z,0.00
2019-03-28T02:10:38.038Z,0.00
2019-03-28T02:11:38.010Z,0.00
2019-03-28T02:12:37.988Z,0.00
2019-03-28T02:13:37.954Z,0.00
2019-03-28T02:14:38.330Z,0.00
2019-03-28T02:15:37.898Z,0.00
2019-03-28T02:16:37.866Z,0.00
2019-03-28T02:17:37.836Z,0.00
2019-03-28T02:18:37.807Z,0.00
2019-03-28T02:19:37.777Z,0.00
2019-03-28T02:20:37.749Z,0.00
2019-03-28T02:21:37.722Z,0.00
2019-03-28T02:22:37.691Z,0.00
2019-03-28T02:23:37.663Z,0.00
2019-03-28T02:24:37.633Z,0.00
2019-03-28T02:25:37.604Z,0.00
2019-03-28T02:26:37.576Z,0.00
2019-03-28T02:27:37.545Z,0.00
2019-03-28T02:28:37.517Z,0.00
2019-03-28T02:29:37.487Z,0.00
2019-03-28T02:30:37.458Z,0.00
2019-03-28T02:31:37.430Z,0.00
2019-03-28T02:32:37.401Z,0.00
2019-03-28T02:33:37.372Z,0.00
2019-03-28T02:34:37.345Z,0.00
2019-03-28T02:35:37.320Z,0.00
2019-03-28T02:36:37.291Z,0.00
2019-03-28T02:37:37.256Z,0.00
2019-03-28T02:38:37.229Z,0.00
2019-03-28T02:39:37.200Z,0.00
2019-03-28T02:40:37.169Z,0.00
2019-03-28T02:41:37.141Z,0.00
2019-03-28T02:42:37.115Z,0.00
2019-03-28T02:43:37.095Z,0.00
2019-03-28T02:44:37.589Z,0.00
2019-03-28T02:45:37.027Z,0.00
2019-03-28T02:46:36.997Z,0.00
2019-03-28T02:47:36.969Z,0.00
2019-03-28T02:48:36.938Z,0.00
2019-03-28T02:49:36.913Z,0.00
2019-03-28T02:50:37.715Z,0.00
2019-03-28T02:51:36.861Z,0.00
2019-03-28T02:52:36.854Z,0.00
2019-03-28T02:53:36.794Z,0.00
2019-03-28T02:54:36.764Z,0.00
2019-03-28T02:55:36.735Z,0.00
2019-03-28T02:56:36.706Z,0.00
2019-03-28T02:57:41.726Z,0.00
2019-03-28T02:58:36.953Z,0.00
2019-03-28T02:59:36.619Z,0.00
2019-03-28T03:00:36.599Z,0.00
2019-03-28T03:01:36.570Z,0.00
2019-03-28T03:02:36.537Z,0.00
2019-03-28T03:03:36.506Z,0.00
2019-03-28T03:04:36.474Z,0.00
2019-03-28T03:05:36.447Z,0.00
2019-03-28T03:06:36.416Z,0.00
2019-03-28T03:07:36.394Z,0.00
2019-03-28T03:08:36.361Z,0.00
2019-03-28T03:09:36.334Z,0.00
2019-03-28T03:10:36.304Z,0.00
2019-03-28T03:11:36.279Z,0.00
2019-03-28T03:12:36.243Z,0.00
2019-03-28T03:13:36.213Z,0.00
2019-03-28T03:14:36.185Z,0.00
2019-03-28T03:15:36.155Z,0.00
2019-03-28T03:16:36.128Z,0.00
2019-03-28T03:17:36.099Z,0.00
2019-03-28T03:18:36.071Z,0.00
2019-03-28T03:19:36.039Z,0.00
2019-03-28T03:20:36.012Z,0.00
2019-03-28T03:21:36.314Z,0.00
2019-03-28T03:22:35.952Z,0.00
2019-03-28T03:23:35.929Z,0.00
2019-03-28T03:24:35.895Z,0.00
2019-03-28T03:25:35.868Z,0.00
2019-03-28T03:26:35.839Z,0.00
2019-03-28T03:27:35.809Z,0.00
2019-03-28T03:28:35.896Z,0.00
2019-03-28T03:29:35.754Z,0.00
2019-03-28T03:30:35.722Z,0.00
2019-03-28T03:31:35.696Z,0.00
2019-03-28T03:32:35.665Z,0.00
2019-03-28T03:33:37.115Z,0.00
2019-03-28T03:34:35.605Z,0.00
2019-03-28T03:35:35.578Z,0.00
2019-03-28T03:36:35.550Z,0.00
2019-03-28T03:37:35.520Z,0.00
2019-03-28T03:38:35.493Z,0.00
2019-03-28T03:39:35.470Z,0.00
2019-03-28T03:40:35.440Z,0.00
2019-03-28T03:41:35.406Z,0.00
2019-03-28T03:42:35.379Z,0.00
2019-03-28T03:43:35.345Z,0.00
2019-03-28T03:44:35.319Z,0.00
2019-03-28T03:45:35.721Z,0.00
2019-03-28T03:46:35.259Z,0.00
2019-03-28T03:47:35.230Z,0.00
2019-03-28T03:48:35.204Z,0.00
2019-03-28T03:49:35.178Z,0.00
2019-03-28T03:50:35.145Z,0.00
2019-03-28T03:51:35.122Z,0.00
2019-03-28T03:52:35.085Z,0.00
2019-03-28T03:53:35.058Z,0.00
2019-03-28T03:54:35.028Z,0.00
2019-03-28T03:55:34.999Z,0.00
2019-03-28T03:56:34.972Z,0.00
2019-03-28T03:57:34.966Z,0.00
2019-03-28T03:58:34.911Z,0.00
2019-03-28T03:59:34.883Z,0.00
2019-03-28T04:00:34.860Z,0.00
2019-03-28T04:01:34.826Z,0.00
2019-03-28T04:02:34.796Z,0.00
2019-03-28T04:03:34.769Z,0.00
2019-03-28T04:04:34.754Z,0.00
2019-03-28T04:05:34.715Z,0.00
2019-03-28T04:06:34.681Z,0.00
2019-03-28T04:07:34.654Z,0.00
2019-03-28T04:08:34.625Z,0.00
2019-03-28T04:09:34.595Z,0.00
2019-03-28T04:10:34.577Z,0.00
2019-03-28T04:11:34.550Z,0.00
2019-03-28T04:12:34.518Z,0.00
2019-03-28T04:13:34.485Z,0.00
2019-03-28T04:14:34.459Z,0.00
2019-03-28T04:15:34.420Z,0.00
2019-03-28T04:16:34.393Z,0.00
2019-03-28T04:17:34.368Z,0.00
2019-03-28T04:18:34.340Z,0.00
2019-03-28T04:19:34.309Z,0.00
2019-03-28T04:20:34.277Z,0.00
2019-03-28T04:21:34.251Z,0.00
2019-03-28T04:22:34.223Z,0.00
2019-03-28T04:23:34.191Z,0.00
2019-03-28T04:24:34.162Z,0.00
2019-03-28T04:25:34.143Z,0.00
2019-03-28T04:26:34.103Z,0.00
2019-03-28T04:27:34.075Z,0.00
2019-03-28T04:28:34.045Z,0.00
2019-03-28T04:29:34.019Z,4.00
2019-03-28T04:30:33.989Z,4.00
2019-03-28T04:31:33.965Z,4.00
2019-03-28T04:32:33.939Z,0.00
2019-03-28T04:33:33.905Z,4.00
2019-03-28T04:34:33.873Z,8.00
2019-03-28T04:35:33.849Z,4.00
2019-03-28T04:36:33.816Z,4.00
2019-03-28T04:37:33.789Z,8.00
2019-03-28T04:38:33.758Z,12.00
2019-03-28T04:39:33.729Z,8.00
2019-03-28T04:40:34.448Z,12.00
2019-03-28T04:41:33.673Z,12.00
2019-03-28T04:42:33.642Z,16.00
2019-03-28T04:43:33.616Z,20.00
2019-03-28T04:44:33.587Z,20.00
2019-03-28T04:45:33.557Z,24.00
2019-03-28T04:46:33.529Z,32.00
2019-03-28T04:47:33.500Z,32.00
2019-03-28T04:48:33.474Z,36.00
2019-03-28T04:49:33.447Z,40.00
2019-03-28T04:50:33.414Z,48.00
2019-03-28T04:51:33.386Z,48.00
2019-03-28T04:52:33.358Z,52.00
2019-03-28T04:53:33.329Z,60.00
2019-03-28T04:54:33.299Z,72.00
2019-03-28T04:55:33.270Z,84.00
2019-03-28T04:56:33.251Z,92.00
2019-03-28T04:57:33.215Z,84.00
2019-03-28T04:58:43.819Z,96.00
2019-03-28T04:59:33.156Z,116.00
2019-03-28T05:00:33.382Z,144.00
2019-03-28T05:01:33.104Z,176.00
2019-03-28T05:02:33.071Z,196.00
2019-03-28T05:03:33.044Z,224.00
2019-03-28T05:04:33.034Z,256.00
2019-03-28T05:05:32.990Z,284.00
2019-03-28T05:06:32.955Z,280.00
2019-03-28T05:07:32.929Z,308.00
2019-03-28T05:08:33.417Z,328.00
2019-03-28T05:09:32.872Z,352.00
2019-03-28T05:10:33.195Z,388.00
2019-03-28T05:11:33.333Z,464.00
2019-03-28T05:12:32.786Z,528.00
2019-03-28T05:13:32.758Z,544.00
2019-03-28T05:14:32.729Z,520.00
2019-03-28T05:15:32.704Z,512.00
2019-03-28T05:16:32.671Z,500.00
2019-03-28T05:17:32.645Z,568.00
2019-03-28T05:18:32.616Z,632.00
2019-03-28T05:19:32.585Z,632.00
2019-03-28T05:20:32.558Z,580.00
2019-03-28T05:21:32.529Z,560.00
2019-03-28T05:22:32.500Z,628.00
2019-03-28T05:23:32.472Z,684.00
2019-03-28T05:24:32.645Z,736.00
2019-03-28T05:25:32.414Z,748.00
2019-03-28T05:26:32.388Z,800.00
2019-03-28T05:27:32.880Z,804.00
2019-03-28T05:28:32.334Z,824.00
2019-03-28T05:29:32.302Z,868.00
2019-03-28T05:30:32.273Z,936.00
2019-03-28T05:31:32.243Z,996.00
2019-03-28T05:32:32.217Z,1064.00
2019-03-28T05:33:32.188Z,1132.00
2019-03-28T05:34:32.159Z,1104.00
2019-03-28T05:35:32.132Z,1216.00
2019-03-28T05:36:32.106Z,1284.00
2019-03-28T05:37:32.074Z,1324.00
2019-03-28T05:38:32.044Z,1544.00
2019-03-28T05:39:32.016Z,1612.00
2019-03-28T05:40:31.989Z,1528.00
2019-03-28T05:41:31.961Z,1644.00
2019-03-28T05:42:31.934Z,1748.00
2019-03-28T05:43:31.902Z,1964.00
2019-03-28T05:44:31.876Z,2224.00
2019-03-28T05:45:31.848Z,2456.00
2019-03-28T05:46:31.818Z,2496.00
2019-03-28T05:47:31.792Z,2468.00
2019-03-28T05:48:31.765Z,2516.00
2019-03-28T05:49:31.734Z,2680.00
2019-03-28T05:50:31.705Z,2640.00
2019-03-28T05:51:31.679Z,2788.00
2019-03-28T05:52:31.649Z,2632.00
2019-03-28T05:53:31.620Z,2696.00
2019-03-28T05:54:31.591Z,2852.00
2019-03-28T05:55:31.565Z,2904.00
2019-03-28T05:56:31.535Z,2824.00
2019-03-28T05:57:31.507Z,2924.00
2019-03-28T05:58:31.478Z,2896.00
2019-03-28T05:59:31.453Z,2924.00
2019-03-28T06:00:31.422Z,3152.00
2019-03-28T06:01:32.311Z,3116.00
2019-03-28T06:02:31.363Z,3368.00
2019-03-28T06:03:31.336Z,2928.00
2019-03-28T06:04:31.311Z,3120.00
2019-03-28T06:05:31.280Z,3220.00
2019-03-28T06:06:31.251Z,3312.00
2019-03-28T06:07:31.225Z,3328.00
2019-03-28T06:08:31.195Z,3632.00
2019-03-28T06:09:31.171Z,3556.00
2019-03-28T06:10:31.138Z,3664.00
2019-03-28T06:11:31.133Z,3640.00
2019-03-28T06:12:31.082Z,3848.00
2019-03-28T06:13:31.053Z,3608.00
2019-03-28T06:14:31.024Z,3836.00
2019-03-28T06:15:30.997Z,4260.00
2019-03-28T06:16:31.042Z,3800.00
2019-03-28T06:17:30.940Z,3916.00
2019-03-28T06:18:30.912Z,4016.00
2019-03-28T06:19:30.885Z,4388.00
2019-03-28T06:20:30.856Z,4724.00
2019-03-28T06:21:30.829Z,4280.00
2019-03-28T06:22:30.799Z,4388.00
2019-03-28T06:23:30.772Z,4156.00
2019-03-28T06:24:31.249Z,4740.00
2019-03-28T06:25:30.716Z,4764.00
2019-03-28T06:26:30.690Z,4588.00
2019-03-28T06:27:30.661Z,4940.00
2019-03-28T06:28:30.631Z,4424.00
2019-03-28T06:29:30.602Z,4892.00
2019-03-28T06:30:30.575Z,5896.00
2019-03-28T06:31:30.549Z,5472.00
2019-03-28T06:32:42.254Z,3700.00
2019-03-28T06:33:30.492Z,3240.00
2019-03-28T06:34:30.463Z,3400.00
2019-03-28T06:35:30.435Z,3424.00
2019-03-28T06:36:30.405Z,4292.00
2019-03-28T06:37:30.380Z,3936.00
2019-03-28T06:38:30.353Z,4572.00
2019-03-28T06:39:30.323Z,4680.00
2019-03-28T06:40:31.307Z,3512.00
2019-03-28T06:41:30.266Z,2988.00
2019-03-28T06:42:30.239Z,3304.00
2019-03-28T06:43:30.213Z,4108.00
2019-03-28T06:44:30.184Z,5104.00
2019-03-28T06:45:30.154Z,7208.00
2019-03-28T06:46:30.125Z,8252.00
2019-03-28T06:47:30.098Z,8804.00
2019-03-28T06:48:30.068Z,8240.00
2019-03-28T06:49:30.042Z,7976.00
2019-03-28T06:50:30.013Z,9956.00
2019-03-28T06:51:29.985Z,10784.00
2019-03-28T06:52:29.958Z,10904.00
2019-03-28T06:53:29.929Z,10300.00
2019-03-28T06:54:30.577Z,10056.00
2019-03-28T06:55:29.877Z,8720.00
2019-03-28T06:56:29.846Z,9412.00
2019-03-28T06:57:29.818Z,7640.00
2019-03-28T06:58:29.788Z,6204.00
2019-03-28T06:59:37.119Z,5508.00
2019-03-28T07:00:29.734Z,4584.00
2019-03-28T07:01:29.706Z,4792.00
2019-03-28T07:02:29.680Z,5464.00
2019-03-28T07:03:29.649Z,4700.00
2019-03-28T07:04:30.258Z,4300.00
2019-03-28T07:05:29.595Z,4816.00
2019-03-28T07:06:29.569Z,5144.00
2019-03-28T07:07:29.537Z,5784.00
2019-03-28T07:08:29.510Z,5948.00
2019-03-28T07:09:29.483Z,5280.00
2019-03-28T07:10:29.455Z,5264.00
2019-03-28T07:11:29.428Z,4752.00
2019-03-28T07:12:29.398Z,4024.00
2019-03-28T07:13:29.371Z,4756.00
2019-03-28T07:14:29.345Z,5732.00
2019-03-28T07:15:29.315Z,5280.00
2019-03-28T07:16:29.288Z,5348.00
2019-03-28T07:17:29.268Z,5448.00
2019-03-28T07:18:29.232Z,4672.00
2019-03-28T07:19:29.243Z,4480.00
2019-03-28T07:20:29.177Z,4852.00
2019-03-28T07:21:29.149Z,5812.00
2019-03-28T07:22:29.120Z,5220.00
2019-03-28T07:23:29.092Z,4948.00
2019-03-28T07:24:29.064Z,4160.00
2019-03-28T07:25:29.038Z,3864.00
2019-03-28T07:26:29.010Z,4564.00
2019-03-28T07:27:28.981Z,5156.00
2019-03-28T07:28:28.954Z,5812.00
2019-03-28T07:29:28.937Z,6552.00
2019-03-28T07:30:28.898Z,7028.00
2019-03-28T07:31:28.869Z,8060.00
2019-03-28T07:32:28.843Z,7060.00
2019-03-28T07:33:28.823Z,6084.00
2019-03-28T07:34:28.787Z,6468.00
2019-03-28T07:35:28.760Z,6012.00
2019-03-28T07:36:28.732Z,6432.00
2019-03-28T07:37:28.707Z,5980.00
2019-03-28T07:38:28.676Z,6528.00
2019-03-28T07:39:28.650Z,5776.00
2019-03-28T07:40:28.621Z,6500.00
2019-03-28T07:41:28.593Z,6892.00
2019-03-28T07:42:28.564Z,6620.00
2019-03-28T07:43:28.538Z,6928.00
2019-03-28T07:44:28.692Z,6944.00
2019-03-28T07:45:28.485Z,8204.00
2019-03-28T07:46:28.454Z,7684.00
2019-03-28T07:47:28.428Z,7136.00
2019-03-28T07:48:28.400Z,7304.00
2019-03-28T07:49:28.373Z,6172.00
2019-03-28T07:50:28.344Z,5508.00
2019-03-28T07:51:28.327Z,6044.00
2019-03-28T07:52:28.291Z,5036.00
2019-03-28T07:53:28.263Z,4960.00
2019-03-28T07:54:28.234Z,5440.00
2019-03-28T07:55:28.207Z,4272.00
2019-03-28T07:56:28.179Z,4012.00
2019-03-28T07:57:28.154Z,4424.00
2019-03-28T07:58:28.125Z,4968.00
2019-03-28T07:59:28.100Z,4708.00
2019-03-28T08:00:28.070Z,4272.00
2019-03-28T08:01:28.055Z,4624.00
2019-03-28T08:02:28.016Z,5084.00
2019-03-28T08:03:27.985Z,5028.00
2019-03-28T08:04:27.958Z,4796.00
2019-03-28T08:05:27.932Z,4844.00
2019-03-28T08:06:27.904Z,5448.00
2019-03-28T08:07:27.879Z,5676.00
2019-03-28T08:08:38.237Z,5768.00
2019-03-28T08:09:36.598Z,5124.00
2019-03-28T08:10:27.792Z,5188.00
2019-03-28T08:11:27.890Z,6092.00
2019-03-28T08:12:27.737Z,7244.00
2019-03-28T08:13:27.711Z,6908.00
2019-03-28T08:14:27.682Z,6020.00
2019-03-28T08:15:27.655Z,5576.00
2019-03-28T08:16:28.924Z,5324.00
2019-03-28T08:17:27.599Z,5148.00
2019-03-28T08:18:27.572Z,5452.00
2019-03-28T08:19:27.545Z,6040.00
2019-03-28T08:20:27.516Z,6140.00
2019-03-28T08:21:27.490Z,6244.00
2019-03-28T08:22:29.679Z,6912.00
2019-03-28T08:23:27.434Z,6548.00
2019-03-28T08:24:27.406Z,6032.00
2019-03-28T08:25:27.379Z,6032.00
2019-03-28T08:26:30.074Z,6560.00
2019-03-28T08:27:27.324Z,7304.00
2019-03-28T08:28:27.296Z,7720.00
2019-03-28T08:29:27.270Z,7888.00
2019-03-28T08:30:27.240Z,7892.00
2019-03-28T08:31:27.212Z,8128.00
2019-03-28T08:32:27.186Z,7868.00
2019-03-28T08:33:27.158Z,8028.00
2019-03-28T08:34:27.129Z,8780.00
2019-03-28T08:35:27.102Z,7968.00
2019-03-28T08:36:27.074Z,7476.00
2019-03-28T08:37:27.047Z,8016.00
2019-03-28T08:38:27.018Z,7648.00
2019-03-28T08:39:26.991Z,7728.00
2019-03-28T08:40:26.964Z,8108.00
2019-03-28T08:41:26.937Z,8876.00
2019-03-28T08:42:26.909Z,8984.00
2019-03-28T08:43:26.880Z,8728.00
2019-03-28T08:44:26.852Z,9092.00
2019-03-28T08:45:26.827Z,9020.00
2019-03-28T08:46:26.798Z,9192.00
2019-03-28T08:47:26.771Z,9532.00
2019-03-28T08:48:26.742Z,8860.00
2019-03-28T08:49:26.715Z,9308.00
2019-03-28T08:50:26.691Z,8976.00
2019-03-28T08:51:27.499Z,9028.00
2019-03-28T08:52:26.634Z,8748.00
2019-03-28T08:53:26.608Z,8540.00
2019-03-28T08:54:26.578Z,8168.00
2019-03-28T08:55:26.551Z,8080.00
2019-03-28T08:56:26.525Z,8500.00
2019-03-28T08:57:26.502Z,8804.00
2019-03-28T08:58:26.468Z,8836.00
2019-03-28T08:59:26.441Z,8080.00
2019-03-28T09:00:33.063Z,7732.00
2019-03-28T09:01:26.388Z,8644.00
2019-03-28T09:02:26.359Z,9492.00
2019-03-28T09:03:26.331Z,10900.00
2019-03-28T09:04:26.306Z,11176.00
2019-03-28T09:05:26.281Z,11716.00
2019-03-28T09:06:26.258Z,11764.00
2019-03-28T09:07:26.231Z,11768.00
2019-03-28T09:08:26.198Z,11256.00
2019-03-28T09:09:26.171Z,10844.00
2019-03-28T09:10:26.142Z,9804.00
2019-03-28T09:11:26.116Z,9184.00
2019-03-28T09:12:26.090Z,9396.00
2019-03-28T09:13:26.063Z,9468.00
2019-03-28T09:14:26.038Z,9004.00
2019-03-28T09:15:26.010Z,9372.00
2019-03-28T09:16:25.983Z,9716.00
2019-03-28T09:17:25.954Z,9992.00
2019-03-28T09:18:25.927Z,10088.00
2019-03-28T09:19:25.912Z,10596.00
2019-03-28T09:20:25.874Z,10848.00
2019-03-28T09:21:25.846Z,9856.00
2019-03-28T09:22:25.818Z,10104.00
2019-03-28T09:23:25.792Z,11572.00
2019-03-28T09:24:25.765Z,12512.00
2019-03-28T09:25:25.737Z,13624.00
2019-03-28T09:26:25.711Z,15060.00
2019-03-28T09:27:25.684Z,15140.00
2019-03-28T09:28:25.666Z,13960.00
2019-03-28T09:29:25.632Z,12092.00
2019-03-28T09:30:25.605Z,10572.00
2019-03-28T09:31:25.577Z,10284.00
2019-03-28T09:32:25.550Z,9992.00
2019-03-28T09:33:25.525Z,11996.00
2019-03-28T09:34:25.510Z,13644.00
2019-03-28T09:35:25.469Z,13524.00
2019-03-28T09:36:25.451Z,14440.00
2019-03-28T09:37:25.415Z,14888.00
2019-03-28T09:38:25.388Z,12892.00
2019-03-28T09:39:25.369Z,13080.00
2019-03-28T09:40:25.337Z,14312.00
2019-03-28T09:41:25.309Z,13560.00
2019-03-28T09:42:25.283Z,12852.00
2019-03-28T09:43:25.255Z,13576.00
2019-03-28T09:44:25.228Z,12980.00
2019-03-28T09:45:25.201Z,12848.00
2019-03-28T09:46:25.176Z,12912.00
2019-03-28T09:47:25.147Z,11932.00
2019-03-28T09:48:25.121Z,11856.00
2019-03-28T09:49:25.094Z,11636.00
2019-03-28T09:50:25.066Z,11804.00
2019-03-28T09:51:25.041Z,10892.00
2019-03-28T09:52:25.014Z,10912.00
2019-03-28T09:53:24.989Z,10828.00
2019-03-28T09:54:24.959Z,10924.00
2019-03-28T09:55:24.934Z,10684.00
2019-03-28T09:56:24.907Z,9860.00
2019-03-28T09:57:24.880Z,9640.00
2019-03-28T09:58:24.854Z,10144.00
2019-03-28T09:59:24.827Z,10664.00
2019-03-28T10:00:24.804Z,11460.00
2019-03-28T10:01:24.776Z,11412.00
2019-03-28T10:02:24.746Z,11124.00
2019-03-28T10:03:24.721Z,11004.00
2019-03-28T10:04:24.693Z,11372.00
2019-03-28T10:05:24.669Z,11576.00
2019-03-28T10:06:24.640Z,11432.00
2019-03-28T10:07:24.611Z,11116.00
2019-03-28T10:08:24.586Z,10524.00
2019-03-28T10:09:24.559Z,11236.00
2019-03-28T10:10:24.532Z,11740.00
2019-03-28T10:11:24.504Z,12856.00
2019-03-28T10:12:24.478Z,12152.00
2019-03-28T10:13:24.451Z,11712.00
2019-03-28T10:14:24.424Z,13876.00
2019-03-28T10:15:24.400Z,15724.00
2019-03-28T10:16:24.384Z,15340.00
2019-03-28T10:17:24.347Z,15088.00
2019-03-28T10:18:24.317Z,17212.00
2019-03-28T10:19:24.292Z,15252.00
2019-03-28T10:20:24.264Z,15220.00
2019-03-28T10:21:24.241Z,15740.00
2019-03-28T10:22:24.212Z,15612.00
2019-03-28T10:23:24.184Z,15704.00
2019-03-28T10:24:24.160Z,16256.00
2019-03-28T10:25:24.132Z,16528.00
2019-03-28T10:26:24.105Z,14708.00
2019-03-28T10:27:24.080Z,13880.00
2019-03-28T10:28:24.052Z,13852.00
2019-03-28T10:29:24.027Z,12708.00
2019-03-28T10:30:24.021Z,12208.00
2019-03-28T10:31:23.974Z,13252.00
2019-03-28T10:32:23.946Z,13188.00
2019-03-28T10:33:24.536Z,14376.00
2019-03-28T10:34:23.895Z,15116.00
2019-03-28T10:35:23.868Z,15608.00
2019-03-28T10:36:23.844Z,16424.00
2019-03-28T10:37:23.816Z,16720.00
2019-03-28T10:38:23.792Z,14756.00
2019-03-28T10:39:23.765Z,13620.00
2019-03-28T10:40:23.737Z,13572.00
2019-03-28T10:41:25.871Z,12316.00
2019-03-28T10:42:23.684Z,12924.00
2019-03-28T10:43:23.660Z,12932.00
2019-03-28T10:44:23.632Z,14300.00
2019-03-28T10:45:23.606Z,15052.00
2019-03-28T10:46:23.578Z,14328.00
2019-03-28T10:47:23.553Z,13268.00
2019-03-28T10:48:23.652Z,13112.00
2019-03-28T10:49:23.501Z,14000.00
2019-03-28T10:50:23.474Z,12988.00
2019-03-28T10:51:23.447Z,12272.00
2019-03-28T10:52:23.422Z,12268.00
2019-03-28T10:53:23.396Z,13728.00
2019-03-28T10:54:25.788Z,15136.00
2019-03-28T10:55:23.342Z,16096.00
2019-03-28T10:56:24.185Z,14468.00
2019-03-28T10:57:29.941Z,11752.00
2019-03-28T10:58:23.263Z,11680.00
2019-03-28T10:59:24.065Z,13632.00
2019-03-28T11:00:24.524Z,13688.00
2019-03-28T11:01:41.486Z,14852.00
2019-03-28T11:02:23.158Z,15580.00
2019-03-28T11:03:23.133Z,15052.00
2019-03-28T11:04:23.107Z,14588.00
2019-03-28T11:05:23.079Z,15064.00
2019-03-28T11:06:23.052Z,14844.00
2019-03-28T11:07:23.026Z,15340.00
2019-03-28T11:08:23.002Z,16284.00
2019-03-28T11:09:22.975Z,14916.00
2019-03-28T11:10:22.948Z,15208.00
2019-03-28T11:11:22.926Z,16120.00
2019-03-28T11:12:22.897Z,16372.00
2019-03-28T11:13:22.871Z,15448.00
2019-03-28T11:14:22.843Z,15384.00
2019-03-28T11:15:22.818Z,14812.00
2019-03-28T11:16:22.791Z,17404.00
2019-03-28T11:17:22.765Z,18080.00
2019-03-28T11:18:22.739Z,15436.00
2019-03-28T11:19:22.713Z,16700.00
2019-03-28T11:20:22.687Z,16932.00
2019-03-28T11:21:22.662Z,16256.00
2019-03-28T11:22:22.632Z,16476.00
2019-03-28T11:23:22.608Z,14688.00
2019-03-28T11:24:22.581Z,15724.00
2019-03-28T11:25:22.555Z,14116.00
2019-03-28T11:26:22.530Z,12084.00
2019-03-28T11:27:23.547Z,12464.00
2019-03-28T11:28:23.484Z,13360.00
2019-03-28T11:29:22.450Z,14060.00
2019-03-28T11:30:22.424Z,15396.00
2019-03-28T11:31:22.397Z,14744.00
2019-03-28T11:32:22.372Z,14240.00
2019-03-28T11:33:22.489Z,14120.00
2019-03-28T11:34:22.319Z,13840.00
2019-03-28T11:35:22.293Z,13628.00
2019-03-28T11:36:22.274Z,13264.00
2019-03-28T11:37:26.502Z,11668.00
2019-03-28T11:38:22.217Z,11872.00
2019-03-28T11:39:22.189Z,11196.00
2019-03-28T11:40:24.567Z,11288.00
2019-03-28T11:41:22.137Z,11392.00
2019-03-28T11:42:22.111Z,11576.00
2019-03-28T11:43:22.090Z,12148.00
2019-03-28T11:44:22.059Z,11800.00
2019-03-28T11:45:22.033Z,11540.00
2019-03-28T11:46:22.006Z,11688.00
2019-03-28T11:47:22.498Z,11152.00
2019-03-28T11:48:21.954Z,10692.00
2019-03-28T11:49:21.930Z,10668.00
2019-03-28T11:50:21.901Z,9876.00
2019-03-28T11:51:21.876Z,9096.00
2019-03-28T11:52:21.850Z,8952.00
2019-03-28T11:53:21.826Z,9228.00
2019-03-28T11:54:21.798Z,8632.00
2019-03-28T11:55:21.773Z,8852.00
2019-03-28T11:56:21.747Z,10048.00
2019-03-28T11:57:21.721Z,9536.00
2019-03-28T11:58:21.694Z,9584.00
2019-03-28T11:59:21.667Z,9784.00
2019-03-28T12:00:21.643Z,9360.00
2019-03-28T12:01:21.615Z,8820.00
2019-03-28T12:02:21.589Z,8596.00
2019-03-28T12:03:21.563Z,8312.00
2019-03-28T12:04:21.538Z,8580.00
2019-03-28T12:05:21.512Z,8888.00
2019-03-28T12:06:21.486Z,8252.00
2019-03-28T12:07:21.459Z,7940.00
2019-03-28T12:08:21.433Z,8200.00
2019-03-28T12:09:21.406Z,8492.00
2019-03-28T12:10:21.381Z,8200.00
2019-03-28T12:11:21.361Z,8076.00
2019-03-28T12:12:21.330Z,7644.00
2019-03-28T12:13:21.304Z,7492.00
2019-03-28T12:14:21.276Z,7108.00
2019-03-28T12:15:21.250Z,7088.00
2019-03-28T12:16:21.225Z,7100.00
2019-03-28T12:17:21.199Z,6848.00
2019-03-28T12:18:21.188Z,6692.00
2019-03-28T12:19:21.148Z,6596.00
2019-03-28T12:20:21.120Z,6540.00
2019-03-28T12:21:21.093Z,6456.00
2019-03-28T12:22:21.069Z,6680.00
2019-03-28T12:23:21.054Z,7036.00
2019-03-28T12:24:21.015Z,7144.00
2019-03-28T12:25:20.988Z,6844.00
2019-03-28T12:26:21.029Z,6644.00
2019-03-28T12:27:20.935Z,6564.00
2019-03-28T12:28:20.909Z,6636.00